sensor_id;sensor_type;location;lat;lon;timestamp;P1;durP1;ratioP1;P2;durP2;ratioP2
10705;SDS011;5404;42.656;23.336;2023-03-14T00:00:33;40.50;;;15.88;;
10705;SDS011;5404;42.656;23.336;2023-03-14T00:02:58;47.17;;;16.67;;
10705;SDS011;5404;42.656;23.336;2023-03-14T00:05:24;37.17;;;15.48;;
10705;SDS011;5404;42.656;23.336;2023-03-14T00:07:49;36.58;;;14.85;;
10705;SDS011;5404;42.656;23.336;2023-03-14T00:10:15;37.75;;;15.70;;
10705;SDS011;5404;42.656;23.336;2023-03-14T00:12:41;38.15;;;14.70;;
10705;SDS011;5404;42.656;23.336;2023-03-14T00:15:07;42.97;;;16.65;;
10705;SDS011;5404;42.656;23.336;2023-03-14T00:17:35;33.70;;;15.38;;
10705;SDS011;5404;42.656;23.336;2023-03-14T00:20:01;48.83;;;19.08;;
10705;SDS011;5404;42.656;23.336;2023-03-14T00:22:30;40.47;;;15.98;;
10705;SDS011;5404;42.656;23.336;2023-03-14T00:24:56;54.85;;;18.35;;
10705;SDS011;5404;42.656;23.336;2023-03-14T00:27:22;51.33;;;19.05;;
10705;SDS011;5404;42.656;23.336;2023-03-14T00:29:49;68.03;;;25.90;;
10705;SDS011;5404;42.656;23.336;2023-03-14T00:32:15;64.25;;;20.10;;
10705;SDS011;5404;42.656;23.336;2023-03-14T00:34:41;47.75;;;19.25;;
10705;SDS011;5404;42.656;23.336;2023-03-14T00:37:08;50.17;;;19.13;;
10705;SDS011;5404;42.656;23.336;2023-03-14T00:39:34;53.08;;;20.75;;
10705;SDS011;5404;42.656;23.336;2023-03-14T00:41:59;52.75;;;19.83;;
10705;SDS011;5404;42.656;23.336;2023-03-14T00:44:25;49.08;;;20.58;;
10705;SDS011;5404;42.656;23.336;2023-03-14T00:46:50;49.50;;;20.63;;
10705;SDS011;5404;42.656;23.336;2023-03-14T00:49:16;66.13;;;21.80;;
10705;SDS011;5404;42.656;23.336;2023-03-14T00:51:42;54.58;;;20.17;;
10705;SDS011;5404;42.656;23.336;2023-03-14T00:54:08;50.28;;;18.63;;
10705;SDS011;5404;42.656;23.336;2023-03-14T00:56:34;45.47;;;18.13;;
10705;SDS011;5404;42.656;23.336;2023-03-14T00:58:59;41.38;;;18.25;;
10705;SDS011;5404;42.656;23.336;2023-03-14T01:01:25;42.13;;;18.38;;
10705;SDS011;5404;42.656;23.336;2023-03-14T01:03:51;37.25;;;16.50;;
10705;SDS011;5404;42.656;23.336;2023-03-14T01:06:23;34.47;;;16.02;;
10705;SDS011;5404;42.656;23.336;2023-03-14T01:08:51;40.80;;;15.77;;
10705;SDS011;5404;42.656;23.336;2023-03-14T01:11:18;40.65;;;16.77;;
10705;SDS011;5404;42.656;23.336;2023-03-14T01:13:48;34.30;;;16.02;;
10705;SDS011;5404;42.656;23.336;2023-03-14T01:16:14;39.30;;;15.27;;
10705;SDS011;5404;42.656;23.336;2023-03-14T01:18:41;33.63;;;15.18;;
10705;SDS011;5404;42.656;23.336;2023-03-14T01:23:52;78.95;;;28.20;;
10705;SDS011;5404;42.656;23.336;2023-03-14T01:26:19;42.97;;;16.00;;
10705;SDS011;5404;42.656;23.336;2023-03-14T01:31:13;59.10;;;21.30;;
10705;SDS011;5404;42.656;23.336;2023-03-14T01:33:40;35.70;;;16.58;;
10705;SDS011;5404;42.656;23.336;2023-03-14T01:36:06;43.63;;;16.60;;
10705;SDS011;5404;42.656;23.336;2023-03-14T01:38:36;35.42;;;16.83;;
10705;SDS011;5404;42.656;23.336;2023-03-14T01:41:02;41.72;;;16.50;;
10705;SDS011;5404;42.656;23.336;2023-03-14T01:43:29;34.95;;;16.60;;
10705;SDS011;5404;42.656;23.336;2023-03-14T01:48:42;41.05;;;15.25;;
10705;SDS011;5404;42.656;23.336;2023-03-14T01:51:13;33.30;;;14.95;;
10705;SDS011;5404;42.656;23.336;2023-03-14T01:53:46;36.38;;;15.32;;
10705;SDS011;5404;42.656;23.336;2023-03-14T01:56:15;41.05;;;16.77;;
10705;SDS011;5404;42.656;23.336;2023-03-14T01:58:45;36.85;;;16.35;;
10705;SDS011;5404;42.656;23.336;2023-03-14T02:01:14;45.00;;;16.35;;
10705;SDS011;5404;42.656;23.336;2023-03-14T02:03:47;40.17;;;17.02;;
10705;SDS011;5404;42.656;23.336;2023-03-14T02:06:21;31.13;;;15.43;;
10705;SDS011;5404;42.656;23.336;2023-03-14T02:08:50;36.33;;;15.43;;
10705;SDS011;5404;42.656;23.336;2023-03-14T02:11:17;32.30;;;16.27;;
10705;SDS011;5404;42.656;23.336;2023-03-14T02:13:43;34.80;;;15.90;;
10705;SDS011;5404;42.656;23.336;2023-03-14T02:16:10;40.47;;;16.23;;
10705;SDS011;5404;42.656;23.336;2023-03-14T02:18:37;32.70;;;16.27;;
10705;SDS011;5404;42.656;23.336;2023-03-14T02:21:07;49.58;;;20.98;;
10705;SDS011;5404;42.656;23.336;2023-03-14T02:26:41;45.58;;;16.75;;
10705;SDS011;5404;42.656;23.336;2023-03-14T02:29:10;54.28;;;18.85;;
10705;SDS011;5404;42.656;23.336;2023-03-14T02:31:36;46.25;;;19.35;;
10705;SDS011;5404;42.656;23.336;2023-03-14T02:34:02;46.72;;;20.60;;
10705;SDS011;5404;42.656;23.336;2023-03-14T02:36:28;52.80;;;19.70;;
10705;SDS011;5404;42.656;23.336;2023-03-14T02:39:04;45.10;;;19.75;;
10705;SDS011;5404;42.656;23.336;2023-03-14T02:41:35;35.80;;;16.08;;
10705;SDS011;5404;42.656;23.336;2023-03-14T02:44:02;44.00;;;16.63;;
10705;SDS011;5404;42.656;23.336;2023-03-14T02:46:29;35.22;;;16.58;;
10705;SDS011;5404;42.656;23.336;2023-03-14T02:49:00;40.60;;;16.77;;
10705;SDS011;5404;42.656;23.336;2023-03-14T02:51:28;36.60;;;14.90;;
10705;SDS011;5404;42.656;23.336;2023-03-14T02:53:55;42.53;;;15.88;;
10705;SDS011;5404;42.656;23.336;2023-03-14T02:56:20;35.45;;;16.45;;
10705;SDS011;5404;42.656;23.336;2023-03-14T02:58:46;29.88;;;15.38;;
10705;SDS011;5404;42.656;23.336;2023-03-14T03:01:12;34.28;;;15.73;;
10705;SDS011;5404;42.656;23.336;2023-03-14T03:03:37;35.25;;;15.00;;
10705;SDS011;5404;42.656;23.336;2023-03-14T03:06:03;46.78;;;16.83;;
10705;SDS011;5404;42.656;23.336;2023-03-14T03:08:30;52.00;;;19.23;;
10705;SDS011;5404;42.656;23.336;2023-03-14T03:10:57;43.65;;;19.92;;
10705;SDS011;5404;42.656;23.336;2023-03-14T03:13:23;48.75;;;20.17;;
10705;SDS011;5404;42.656;23.336;2023-03-14T03:15:48;49.58;;;19.85;;
10705;SDS011;5404;42.656;23.336;2023-03-14T03:18:14;45.40;;;19.42;;
10705;SDS011;5404;42.656;23.336;2023-03-14T03:20:39;41.45;;;18.95;;
10705;SDS011;5404;42.656;23.336;2023-03-14T03:23:05;43.10;;;20.10;;
10705;SDS011;5404;42.656;23.336;2023-03-14T03:25:31;41.30;;;18.65;;
10705;SDS011;5404;42.656;23.336;2023-03-14T03:27:56;43.78;;;18.77;;
10705;SDS011;5404;42.656;23.336;2023-03-14T03:30:22;45.55;;;18.50;;
10705;SDS011;5404;42.656;23.336;2023-03-14T03:32:48;38.72;;;17.30;;
10705;SDS011;5404;42.656;23.336;2023-03-14T03:35:15;39.95;;;18.42;;
10705;SDS011;5404;42.656;23.336;2023-03-14T03:37:41;43.83;;;17.75;;
10705;SDS011;5404;42.656;23.336;2023-03-14T03:40:07;47.58;;;19.65;;
10705;SDS011;5404;42.656;23.336;2023-03-14T03:42:35;45.83;;;19.05;;
10705;SDS011;5404;42.656;23.336;2023-03-14T03:45:01;53.10;;;20.10;;
10705;SDS011;5404;42.656;23.336;2023-03-14T03:47:29;56.50;;;24.90;;
10705;SDS011;5404;42.656;23.336;2023-03-14T03:49:55;53.63;;;26.75;;
10705;SDS011;5404;42.656;23.336;2023-03-14T03:52:21;54.38;;;25.73;;
10705;SDS011;5404;42.656;23.336;2023-03-14T03:54:46;58.05;;;27.20;;
10705;SDS011;5404;42.656;23.336;2023-03-14T03:57:14;57.67;;;24.38;;
10705;SDS011;5404;42.656;23.336;2023-03-14T03:59:41;120.97;;;43.15;;
10705;SDS011;5404;42.656;23.336;2023-03-14T04:02:06;78.43;;;30.58;;
10705;SDS011;5404;42.656;23.336;2023-03-14T04:04:32;44.60;;;20.80;;
10705;SDS011;5404;42.656;23.336;2023-03-14T04:06:58;38.42;;;16.15;;
10705;SDS011;5404;42.656;23.336;2023-03-14T04:09:24;34.20;;;16.13;;
10705;SDS011;5404;42.656;23.336;2023-03-14T04:11:49;40.75;;;16.65;;
10705;SDS011;5404;42.656;23.336;2023-03-14T04:14:15;32.90;;;15.40;;
10705;SDS011;5404;42.656;23.336;2023-03-14T04:16:40;37.83;;;15.32;;
10705;SDS011;5404;42.656;23.336;2023-03-14T04:19:06;42.15;;;17.02;;
10705;SDS011;5404;42.656;23.336;2023-03-14T04:21:31;40.03;;;16.30;;
10705;SDS011;5404;42.656;23.336;2023-03-14T04:23:57;36.28;;;16.83;;
10705;SDS011;5404;42.656;23.336;2023-03-14T04:26:22;42.80;;;19.65;;
10705;SDS011;5404;42.656;23.336;2023-03-14T04:28:48;44.83;;;17.38;;
10705;SDS011;5404;42.656;23.336;2023-03-14T04:31:18;41.65;;;16.45;;
10705;SDS011;5404;42.656;23.336;2023-03-14T04:33:45;36.83;;;14.55;;
10705;SDS011;5404;42.656;23.336;2023-03-14T04:36:11;32.33;;;13.90;;
10705;SDS011;5404;42.656;23.336;2023-03-14T04:38:37;34.70;;;14.35;;
10705;SDS011;5404;42.656;23.336;2023-03-14T04:41:02;33.10;;;14.38;;
10705;SDS011;5404;42.656;23.336;2023-03-14T04:43:28;29.33;;;14.50;;
10705;SDS011;5404;42.656;23.336;2023-03-14T04:45:54;34.85;;;14.30;;
10705;SDS011;5404;42.656;23.336;2023-03-14T04:48:21;38.10;;;16.13;;
10705;SDS011;5404;42.656;23.336;2023-03-14T04:50:48;41.50;;;16.35;;
10705;SDS011;5404;42.656;23.336;2023-03-14T04:53:14;38.55;;;16.02;;
10705;SDS011;5404;42.656;23.336;2023-03-14T04:55:40;36.10;;;16.42;;
10705;SDS011;5404;42.656;23.336;2023-03-14T04:58:06;42.95;;;16.88;;
10705;SDS011;5404;42.656;23.336;2023-03-14T05:00:31;37.63;;;15.52;;
10705;SDS011;5404;42.656;23.336;2023-03-14T05:03:00;31.85;;;15.50;;
10705;SDS011;5404;42.656;23.336;2023-03-14T05:05:25;32.90;;;16.30;;
10705;SDS011;5404;42.656;23.336;2023-03-14T05:07:51;39.75;;;15.85;;
10705;SDS011;5404;42.656;23.336;2023-03-14T05:10:16;33.33;;;16.55;;
10705;SDS011;5404;42.656;23.336;2023-03-14T05:12:42;33.75;;;15.02;;
10705;SDS011;5404;42.656;23.336;2023-03-14T05:15:07;38.25;;;15.57;;
10705;SDS011;5404;42.656;23.336;2023-03-14T05:17:33;43.90;;;15.07;;
10705;SDS011;5404;42.656;23.336;2023-03-14T05:19:59;46.17;;;18.63;;
10705;SDS011;5404;42.656;23.336;2023-03-14T05:22:25;36.88;;;18.15;;
10705;SDS011;5404;42.656;23.336;2023-03-14T05:24:53;45.13;;;17.08;;
10705;SDS011;5404;42.656;23.336;2023-03-14T05:27:21;41.85;;;18.48;;
10705;SDS011;5404;42.656;23.336;2023-03-14T05:29:47;56.45;;;22.50;;
10705;SDS011;5404;42.656;23.336;2023-03-14T05:32:13;46.20;;;19.42;;
10705;SDS011;5404;42.656;23.336;2023-03-14T05:34:38;70.70;;;19.92;;
10705;SDS011;5404;42.656;23.336;2023-03-14T05:37:04;55.25;;;20.33;;
10705;SDS011;5404;42.656;23.336;2023-03-14T05:39:29;67.95;;;19.60;;
10705;SDS011;5404;42.656;23.336;2023-03-14T05:41:55;54.33;;;19.67;;
10705;SDS011;5404;42.656;23.336;2023-03-14T05:44:21;74.03;;;26.08;;
10705;SDS011;5404;42.656;23.336;2023-03-14T05:46:46;53.47;;;21.30;;
10705;SDS011;5404;42.656;23.336;2023-03-14T05:49:12;44.80;;;21.15;;
10705;SDS011;5404;42.656;23.336;2023-03-14T05:51:37;40.33;;;20.48;;
10705;SDS011;5404;42.656;23.336;2023-03-14T05:54:04;44.22;;;19.63;;
10705;SDS011;5404;42.656;23.336;2023-03-14T05:56:29;42.33;;;19.13;;
10705;SDS011;5404;42.656;23.336;2023-03-14T05:58:56;44.03;;;16.48;;
10705;SDS011;5404;42.656;23.336;2023-03-14T06:01:21;39.67;;;17.63;;
10705;SDS011;5404;42.656;23.336;2023-03-14T06:03:47;33.08;;;15.20;;
10705;SDS011;5404;42.656;23.336;2023-03-14T06:06:12;32.30;;;15.93;;
10705;SDS011;5404;42.656;23.336;2023-03-14T06:08:38;30.02;;;16.20;;
10705;SDS011;5404;42.656;23.336;2023-03-14T06:11:04;31.63;;;15.95;;
10705;SDS011;5404;42.656;23.336;2023-03-14T06:13:30;30.83;;;16.02;;
10705;SDS011;5404;42.656;23.336;2023-03-14T06:15:55;35.40;;;16.77;;
10705;SDS011;5404;42.656;23.336;2023-03-14T06:18:21;35.10;;;16.60;;
10705;SDS011;5404;42.656;23.336;2023-03-14T06:20:47;43.13;;;16.30;;
10705;SDS011;5404;42.656;23.336;2023-03-14T06:23:12;33.63;;;15.52;;
10705;SDS011;5404;42.656;23.336;2023-03-14T06:25:37;36.10;;;15.48;;
10705;SDS011;5404;42.656;23.336;2023-03-14T06:28:03;32.33;;;16.13;;
10705;SDS011;5404;42.656;23.336;2023-03-14T06:30:28;38.38;;;14.27;;
10705;SDS011;5404;42.656;23.336;2023-03-14T06:32:54;41.40;;;14.93;;
10705;SDS011;5404;42.656;23.336;2023-03-14T06:35:20;33.42;;;14.73;;
10705;SDS011;5404;42.656;23.336;2023-03-14T06:37:46;30.88;;;12.30;;
10705;SDS011;5404;42.656;23.336;2023-03-14T06:40:12;27.08;;;10.90;;
10705;SDS011;5404;42.656;23.336;2023-03-14T06:42:42;29.58;;;10.43;;
10705;SDS011;5404;42.656;23.336;2023-03-14T06:45:09;24.15;;;10.63;;
10705;SDS011;5404;42.656;23.336;2023-03-14T06:47:36;23.85;;;10.10;;
10705;SDS011;5404;42.656;23.336;2023-03-14T06:50:03;33.88;;;9.40;;
10705;SDS011;5404;42.656;23.336;2023-03-14T06:52:30;16.45;;;9.07;;
10705;SDS011;5404;42.656;23.336;2023-03-14T06:54:55;27.25;;;9.98;;
10705;SDS011;5404;42.656;23.336;2023-03-14T06:57:22;33.10;;;9.73;;
10705;SDS011;5404;42.656;23.336;2023-03-14T06:59:47;24.52;;;8.35;;
10705;SDS011;5404;42.656;23.336;2023-03-14T07:02:13;19.38;;;10.18;;
10705;SDS011;5404;42.656;23.336;2023-03-14T07:04:39;21.63;;;8.48;;
10705;SDS011;5404;42.656;23.336;2023-03-14T07:07:05;20.88;;;9.57;;
10705;SDS011;5404;42.656;23.336;2023-03-14T07:09:30;23.92;;;9.30;;
10705;SDS011;5404;42.656;23.336;2023-03-14T07:11:56;17.98;;;7.93;;
10705;SDS011;5404;42.656;23.336;2023-03-14T07:14:21;16.77;;;9.05;;
10705;SDS011;5404;42.656;23.336;2023-03-14T07:16:47;13.88;;;8.85;;
10705;SDS011;5404;42.656;23.336;2023-03-14T07:19:12;17.40;;;8.88;;
10705;SDS011;5404;42.656;23.336;2023-03-14T07:21:39;17.02;;;8.38;;
10705;SDS011;5404;42.656;23.336;2023-03-14T07:24:04;12.82;;;7.60;;
10705;SDS011;5404;42.656;23.336;2023-03-14T07:26:30;19.70;;;8.88;;
10705;SDS011;5404;42.656;23.336;2023-03-14T07:28:55;23.58;;;8.07;;
10705;SDS011;5404;42.656;23.336;2023-03-14T07:31:21;21.33;;;8.65;;
10705;SDS011;5404;42.656;23.336;2023-03-14T07:33:47;15.88;;;8.32;;
10705;SDS011;5404;42.656;23.336;2023-03-14T07:36:12;26.63;;;9.23;;
10705;SDS011;5404;42.656;23.336;2023-03-14T07:38:39;18.42;;;8.95;;
10705;SDS011;5404;42.656;23.336;2023-03-14T07:41:05;17.27;;;8.88;;
10705;SDS011;5404;42.656;23.336;2023-03-14T07:43:31;19.10;;;8.88;;
10705;SDS011;5404;42.656;23.336;2023-03-14T07:45:57;20.08;;;9.77;;
10705;SDS011;5404;42.656;23.336;2023-03-14T07:48:23;24.63;;;9.70;;
10705;SDS011;5404;42.656;23.336;2023-03-14T07:50:51;18.92;;;8.20;;
10705;SDS011;5404;42.656;23.336;2023-03-14T07:53:17;19.20;;;10.20;;
10705;SDS011;5404;42.656;23.336;2023-03-14T07:55:44;19.95;;;10.55;;
10705;SDS011;5404;42.656;23.336;2023-03-14T07:58:10;25.95;;;11.30;;
10705;SDS011;5404;42.656;23.336;2023-03-14T08:00:36;22.45;;;10.98;;
10705;SDS011;5404;42.656;23.336;2023-03-14T08:03:02;22.23;;;10.82;;
10705;SDS011;5404;42.656;23.336;2023-03-14T08:05:28;28.20;;;10.98;;
10705;SDS011;5404;42.656;23.336;2023-03-14T08:07:53;16.10;;;9.38;;
10705;SDS011;5404;42.656;23.336;2023-03-14T08:10:19;21.75;;;9.27;;
10705;SDS011;5404;42.656;23.336;2023-03-14T08:12:50;33.33;;;16.00;;
10705;SDS011;5404;42.656;23.336;2023-03-14T08:15:20;21.52;;;9.68;;
10705;SDS011;5404;42.656;23.336;2023-03-14T08:17:46;21.77;;;8.98;;
10705;SDS011;5404;42.656;23.336;2023-03-14T08:20:16;19.08;;;9.10;;
10705;SDS011;5404;42.656;23.336;2023-03-14T08:22:48;22.35;;;9.80;;
10705;SDS011;5404;42.656;23.336;2023-03-14T08:25:14;33.42;;;9.93;;
10705;SDS011;5404;42.656;23.336;2023-03-14T08:27:40;21.10;;;9.70;;
10705;SDS011;5404;42.656;23.336;2023-03-14T08:30:07;25.80;;;10.30;;
10705;SDS011;5404;42.656;23.336;2023-03-14T08:32:36;26.80;;;13.23;;
10705;SDS011;5404;42.656;23.336;2023-03-14T08:35:02;29.20;;;11.35;;
10705;SDS011;5404;42.656;23.336;2023-03-14T08:37:28;31.38;;;13.05;;
10705;SDS011;5404;42.656;23.336;2023-03-14T08:39:55;20.83;;;11.05;;
10705;SDS011;5404;42.656;23.336;2023-03-14T08:42:22;24.25;;;11.27;;
10705;SDS011;5404;42.656;23.336;2023-03-14T08:44:47;24.55;;;12.00;;
10705;SDS011;5404;42.656;23.336;2023-03-14T08:47:13;25.05;;;10.25;;
10705;SDS011;5404;42.656;23.336;2023-03-14T08:49:38;19.60;;;10.25;;
10705;SDS011;5404;42.656;23.336;2023-03-14T08:52:06;23.38;;;11.85;;
10705;SDS011;5404;42.656;23.336;2023-03-14T08:54:32;33.25;;;12.73;;
10705;SDS011;5404;42.656;23.336;2023-03-14T08:56:57;21.70;;;11.15;;
10705;SDS011;5404;42.656;23.336;2023-03-14T08:59:23;40.70;;;11.60;;
10705;SDS011;5404;42.656;23.336;2023-03-14T09:01:49;31.80;;;12.07;;
10705;SDS011;5404;42.656;23.336;2023-03-14T09:04:14;35.92;;;11.88;;
10705;SDS011;5404;42.656;23.336;2023-03-14T09:06:40;22.50;;;10.80;;
10705;SDS011;5404;42.656;23.336;2023-03-14T09:09:06;24.27;;;10.70;;
10705;SDS011;5404;42.656;23.336;2023-03-14T09:11:31;22.15;;;11.40;;
10705;SDS011;5404;42.656;23.336;2023-03-14T09:13:57;21.30;;;10.52;;
10705;SDS011;5404;42.656;23.336;2023-03-14T09:16:23;28.33;;;11.45;;
10705;SDS011;5404;42.656;23.336;2023-03-14T09:18:49;21.13;;;11.48;;
10705;SDS011;5404;42.656;23.336;2023-03-14T09:21:14;37.53;;;19.83;;
10705;SDS011;5404;42.656;23.336;2023-03-14T09:23:40;19.67;;;11.00;;
10705;SDS011;5404;42.656;23.336;2023-03-14T09:26:06;18.80;;;8.70;;
10705;SDS011;5404;42.656;23.336;2023-03-14T09:28:32;15.80;;;8.73;;
10705;SDS011;5404;42.656;23.336;2023-03-14T09:30:58;14.98;;;8.52;;
10705;SDS011;5404;42.656;23.336;2023-03-14T09:33:30;22.17;;;9.30;;
10705;SDS011;5404;42.656;23.336;2023-03-14T09:35:58;20.80;;;9.73;;
10705;SDS011;5404;42.656;23.336;2023-03-14T09:38:24;22.83;;;9.68;;
10705;SDS011;5404;42.656;23.336;2023-03-14T09:40:50;21.10;;;9.50;;
10705;SDS011;5404;42.656;23.336;2023-03-14T09:43:16;17.75;;;10.35;;
10705;SDS011;5404;42.656;23.336;2023-03-14T09:45:42;14.70;;;9.00;;
10705;SDS011;5404;42.656;23.336;2023-03-14T09:48:12;15.20;;;9.15;;
10705;SDS011;5404;42.656;23.336;2023-03-14T09:50:51;26.92;;;9.85;;
10705;SDS011;5404;42.656;23.336;2023-03-14T09:53:21;31.13;;;8.70;;
10705;SDS011;5404;42.656;23.336;2023-03-14T09:55:51;22.33;;;9.18;;
10705;SDS011;5404;42.656;23.336;2023-03-14T09:58:20;13.13;;;8.18;;
10705;SDS011;5404;42.656;23.336;2023-03-14T10:00:49;15.43;;;8.82;;
10705;SDS011;5404;42.656;23.336;2023-03-14T10:05:57;16.48;;;8.13;;
10705;SDS011;5404;42.656;23.336;2023-03-14T10:08:23;13.80;;;8.45;;
10705;SDS011;5404;42.656;23.336;2023-03-14T10:10:48;14.07;;;8.40;;
10705;SDS011;5404;42.656;23.336;2023-03-14T10:13:15;13.27;;;7.95;;
10705;SDS011;5404;42.656;23.336;2023-03-14T10:18:12;22.27;;;8.38;;
10705;SDS011;5404;42.656;23.336;2023-03-14T10:20:43;21.08;;;9.18;;
10705;SDS011;5404;42.656;23.336;2023-03-14T10:25:39;23.83;;;9.63;;
10705;SDS011;5404;42.656;23.336;2023-03-14T10:28:29;17.75;;;9.38;;
10705;SDS011;5404;42.656;23.336;2023-03-14T10:30:56;38.40;;;18.83;;
10705;SDS011;5404;42.656;23.336;2023-03-14T10:33:24;14.35;;;8.25;;
10705;SDS011;5404;42.656;23.336;2023-03-14T10:35:55;17.75;;;8.85;;
10705;SDS011;5404;42.656;23.336;2023-03-14T10:38:27;16.25;;;8.02;;
10705;SDS011;5404;42.656;23.336;2023-03-14T10:40:55;14.15;;;7.00;;
10705;SDS011;5404;42.656;23.336;2023-03-14T10:43:23;13.35;;;7.72;;
10705;SDS011;5404;42.656;23.336;2023-03-14T10:46:08;17.33;;;7.30;;
10705;SDS011;5404;42.656;23.336;2023-03-14T10:48:38;16.83;;;6.75;;
10705;SDS011;5404;42.656;23.336;2023-03-14T10:51:08;17.15;;;7.72;;
10705;SDS011;5404;42.656;23.336;2023-03-14T10:53:50;13.70;;;6.63;;
10705;SDS011;5404;42.656;23.336;2023-03-14T10:56:26;19.77;;;7.35;;
10705;SDS011;5404;42.656;23.336;2023-03-14T10:58:58;10.73;;;6.00;;
10705;SDS011;5404;42.656;23.336;2023-03-14T11:09:15;27.23;;;15.10;;
10705;SDS011;5404;42.656;23.336;2023-03-14T11:20:46;10.52;;;5.50;;
10705;SDS011;5404;42.656;23.336;2023-03-14T11:23:23;7.70;;;4.60;;
10705;SDS011;5404;42.656;23.336;2023-03-14T11:28:50;13.98;;;4.45;;
10705;SDS011;5404;42.656;23.336;2023-03-14T11:31:26;10.07;;;3.95;;
10705;SDS011;5404;42.656;23.336;2023-03-14T11:37:17;6.22;;;3.55;;
10705;SDS011;5404;42.656;23.336;2023-03-14T11:39:47;10.18;;;3.70;;
10705;SDS011;5404;42.656;23.336;2023-03-14T11:42:22;19.67;;;3.67;;
10705;SDS011;5404;42.656;23.336;2023-03-14T11:44:50;11.60;;;4.35;;
10705;SDS011;5404;42.656;23.336;2023-03-14T11:47:20;5.88;;;3.88;;
10705;SDS011;5404;42.656;23.336;2023-03-14T11:52:26;10.00;;;3.70;;
10705;SDS011;5404;42.656;23.336;2023-03-14T11:57:44;10.40;;;3.90;;
10705;SDS011;5404;42.656;23.336;2023-03-14T12:00:20;7.05;;;3.28;;
10705;SDS011;5404;42.656;23.336;2023-03-14T12:02:53;5.70;;;3.65;;
10705;SDS011;5404;42.656;23.336;2023-03-14T12:06:05;56.58;;;35.97;;
10705;SDS011;5404;42.656;23.336;2023-03-14T12:11:31;6.47;;;3.50;;
10705;SDS011;5404;42.656;23.336;2023-03-14T12:13:57;7.95;;;3.60;;
10705;SDS011;5404;42.656;23.336;2023-03-14T12:16:32;4.78;;;2.95;;
10705;SDS011;5404;42.656;23.336;2023-03-14T12:19:12;7.55;;;3.22;;
10705;SDS011;5404;42.656;23.336;2023-03-14T12:21:50;6.07;;;3.58;;
10705;SDS011;5404;42.656;23.336;2023-03-14T12:24:21;8.48;;;3.20;;
10705;SDS011;5404;42.656;23.336;2023-03-14T12:26:54;6.93;;;3.35;;
10705;SDS011;5404;42.656;23.336;2023-03-14T12:29:23;4.47;;;2.97;;
10705;SDS011;5404;42.656;23.336;2023-03-14T12:32:06;6.85;;;3.13;;
10705;SDS011;5404;42.656;23.336;2023-03-14T12:34:34;7.38;;;3.20;;
10705;SDS011;5404;42.656;23.336;2023-03-14T12:37:14;10.23;;;3.25;;
10705;SDS011;5404;42.656;23.336;2023-03-14T12:44:48;6.25;;;2.53;;
10705;SDS011;5404;42.656;23.336;2023-03-14T12:47:40;4.50;;;2.85;;
10705;SDS011;5404;42.656;23.336;2023-03-14T12:50:07;6.30;;;2.73;;
10705;SDS011;5404;42.656;23.336;2023-03-14T12:52:50;31.42;;;18.83;;
10705;SDS011;5404;42.656;23.336;2023-03-14T12:55:21;21.42;;;12.50;;
10705;SDS011;5404;42.656;23.336;2023-03-14T13:00:42;8.88;;;2.97;;
10705;SDS011;5404;42.656;23.336;2023-03-14T13:05:54;7.33;;;2.80;;
10705;SDS011;5404;42.656;23.336;2023-03-14T13:11:02;7.50;;;2.60;;
10705;SDS011;5404;42.656;23.336;2023-03-14T13:13:36;5.57;;;2.58;;
10705;SDS011;5404;42.656;23.336;2023-03-14T13:16:05;4.85;;;2.63;;
10705;SDS011;5404;42.656;23.336;2023-03-14T13:18:35;7.18;;;2.75;;
10705;SDS011;5404;42.656;23.336;2023-03-14T13:23:34;3.45;;;2.20;;
10705;SDS011;5404;42.656;23.336;2023-03-14T13:26:03;5.90;;;2.70;;
10705;SDS011;5404;42.656;23.336;2023-03-14T13:28:36;4.25;;;2.60;;
10705;SDS011;5404;42.656;23.336;2023-03-14T13:31:02;3.95;;;2.08;;
10705;SDS011;5404;42.656;23.336;2023-03-14T13:33:29;6.18;;;2.97;;
10705;SDS011;5404;42.656;23.336;2023-03-14T13:35:56;4.03;;;2.40;;
10705;SDS011;5404;42.656;23.336;2023-03-14T13:40:51;5.70;;;2.65;;
10705;SDS011;5404;42.656;23.336;2023-03-14T13:48:29;10.45;;;2.58;;
10705;SDS011;5404;42.656;23.336;2023-03-14T13:50:58;12.25;;;2.05;;
10705;SDS011;5404;42.656;23.336;2023-03-14T13:53:28;7.78;;;2.72;;
10705;SDS011;5404;42.656;23.336;2023-03-14T13:55:54;5.38;;;3.03;;
10705;SDS011;5404;42.656;23.336;2023-03-14T13:58:24;3.83;;;2.15;;
10705;SDS011;5404;42.656;23.336;2023-03-14T14:00:54;7.90;;;4.10;;
10705;SDS011;5404;42.656;23.336;2023-03-14T14:03:42;7.53;;;2.60;;
10705;SDS011;5404;42.656;23.336;2023-03-14T14:08:55;8.43;;;3.38;;
10705;SDS011;5404;42.656;23.336;2023-03-14T14:11:26;4.78;;;2.20;;
10705;SDS011;5404;42.656;23.336;2023-03-14T14:14:04;6.10;;;2.42;;
10705;SDS011;5404;42.656;23.336;2023-03-14T14:16:35;15.30;;;2.72;;
10705;SDS011;5404;42.656;23.336;2023-03-14T14:19:01;5.22;;;2.83;;
10705;SDS011;5404;42.656;23.336;2023-03-14T14:21:29;4.38;;;2.30;;
10705;SDS011;5404;42.656;23.336;2023-03-14T14:23:57;8.70;;;2.33;;
10705;SDS011;5404;42.656;23.336;2023-03-14T14:26:25;3.70;;;2.38;;
10705;SDS011;5404;42.656;23.336;2023-03-14T14:29:00;7.97;;;2.80;;
10705;SDS011;5404;42.656;23.336;2023-03-14T14:31:28;5.75;;;2.42;;
10705;SDS011;5404;42.656;23.336;2023-03-14T14:33:56;3.80;;;2.13;;
10705;SDS011;5404;42.656;23.336;2023-03-14T14:39:18;5.75;;;2.05;;
10705;SDS011;5404;42.656;23.336;2023-03-14T14:41:47;4.53;;;2.20;;
10705;SDS011;5404;42.656;23.336;2023-03-14T14:44:16;12.32;;;2.17;;
10705;SDS011;5404;42.656;23.336;2023-03-14T14:46:45;2.50;;;1.83;;
10705;SDS011;5404;42.656;23.336;2023-03-14T14:49:15;7.72;;;2.33;;
10705;SDS011;5404;42.656;23.336;2023-03-14T14:51:47;4.35;;;2.53;;
10705;SDS011;5404;42.656;23.336;2023-03-14T14:54:18;3.47;;;2.10;;
10705;SDS011;5404;42.656;23.336;2023-03-14T14:57:00;7.63;;;2.25;;
10705;SDS011;5404;42.656;23.336;2023-03-14T14:59:28;3.70;;;2.55;;
10705;SDS011;5404;42.656;23.336;2023-03-14T15:01:58;5.18;;;2.50;;
10705;SDS011;5404;42.656;23.336;2023-03-14T15:04:27;5.90;;;2.30;;
10705;SDS011;5404;42.656;23.336;2023-03-14T15:06:55;6.60;;;2.47;;
10705;SDS011;5404;42.656;23.336;2023-03-14T15:09:20;6.10;;;2.22;;
10705;SDS011;5404;42.656;23.336;2023-03-14T15:11:48;8.40;;;2.53;;
10705;SDS011;5404;42.656;23.336;2023-03-14T15:14:15;10.00;;;3.00;;
10705;SDS011;5404;42.656;23.336;2023-03-14T15:16:40;8.88;;;2.70;;
10705;SDS011;5404;42.656;23.336;2023-03-14T15:22:01;4.78;;;2.67;;
10705;SDS011;5404;42.656;23.336;2023-03-14T15:24:26;8.98;;;2.75;;
10705;SDS011;5404;42.656;23.336;2023-03-14T15:26:52;11.73;;;3.17;;
10705;SDS011;5404;42.656;23.336;2023-03-14T15:29:17;6.22;;;3.10;;
10705;SDS011;5404;42.656;23.336;2023-03-14T15:31:43;5.38;;;2.42;;
10705;SDS011;5404;42.656;23.336;2023-03-14T15:34:09;9.90;;;2.42;;
10705;SDS011;5404;42.656;23.336;2023-03-14T15:36:35;4.68;;;2.50;;
10705;SDS011;5404;42.656;23.336;2023-03-14T15:39:03;10.40;;;2.55;;
10705;SDS011;5404;42.656;23.336;2023-03-14T15:41:31;7.30;;;2.80;;
10705;SDS011;5404;42.656;23.336;2023-03-14T15:43:57;4.13;;;2.78;;
10705;SDS011;5404;42.656;23.336;2023-03-14T15:46:23;11.68;;;3.33;;
10705;SDS011;5404;42.656;23.336;2023-03-14T15:48:49;7.30;;;2.80;;
10705;SDS011;5404;42.656;23.336;2023-03-14T15:51:16;5.75;;;3.25;;
10705;SDS011;5404;42.656;23.336;2023-03-14T15:53:43;16.48;;;3.75;;
10705;SDS011;5404;42.656;23.336;2023-03-14T15:56:13;7.28;;;3.40;;